sensor_id;sensor_type;location;lat;lon;timestamp;temperature;humidity
33761;DHT22;20084;47.912;19.044;2022-08-07T00:00:07;21.90;99.90
33761;DHT22;20084;47.912;19.044;2022-08-07T00:02:33;21.90;99.90
33761;DHT22;20084;47.912;19.044;2022-08-07T00:04:58;21.90;99.90
33761;DHT22;20084;47.912;19.044;2022-08-07T00:07:24;22.00;99.90
33761;DHT22;20084;47.912;19.044;2022-08-07T00:09:49;21.90;99.90
33761;DHT22;20084;47.912;19.044;2022-08-07T00:12:15;22.00;99.90
33761;DHT22;20084;47.912;19.044;2022-08-07T00:14:41;21.90;99.90
33761;DHT22;20084;47.912;19.044;2022-08-07T00:17:06;21.90;99.90
33761;DHT22;20084;47.912;19.044;2022-08-07T00:19:32;21.90;99.90
33761;DHT22;20084;47.912;19.044;2022-08-07T00:21:58;21.90;99.90
33761;DHT22;20084;47.912;19.044;2022-08-07T00:24:23;21.90;99.90
33761;DHT22;20084;47.912;19.044;2022-08-07T00:26:49;21.90;99.90
33761;DHT22;20084;47.912;19.044;2022-08-07T00:29:17;21.90;99.90
33761;DHT22;20084;47.912;19.044;2022-08-07T00:31:43;21.90;99.90
33761;DHT22;20084;47.912;19.044;2022-08-07T00:34:09;21.90;99.90
33761;DHT22;20084;47.912;19.044;2022-08-07T00:36:36;21.90;99.90
33761;DHT22;20084;47.912;19.044;2022-08-07T00:39:02;21.90;99.90
33761;DHT22;20084;47.912;19.044;2022-08-07T00:41:30;21.90;99.90
33761;DHT22;20084;47.912;19.044;2022-08-07T00:43:56;21.90;99.90
33761;DHT22;20084;47.912;19.044;2022-08-07T00:46:22;21.90;99.90
33761;DHT22;20084;47.912;19.044;2022-08-07T00:48:48;21.90;99.90
33761;DHT22;20084;47.912;19.044;2022-08-07T00:51:14;21.90;99.90
33761;DHT22;20084;47.912;19.044;2022-08-07T00:53:40;21.90;99.90
33761;DHT22;20084;47.912;19.044;2022-08-07T00:56:06;21.90;99.90
33761;DHT22;20084;47.912;19.044;2022-08-07T00:58:32;21.90;99.90
33761;DHT22;20084;47.912;19.044;2022-08-07T01:00:58;22.00;99.90
33761;DHT22;20084;47.912;19.044;2022-08-07T01:03:24;22.00;99.90
33761;DHT22;20084;47.912;19.044;2022-08-07T01:05:50;22.00;99.90
33761;DHT22;20084;47.912;19.044;2022-08-07T01:08:17;22.10;99.90
33761;DHT22;20084;47.912;19.044;2022-08-07T01:10:42;22.10;99.90
33761;DHT22;20084;47.912;19.044;2022-08-07T01:13:08;22.00;99.90
33761;DHT22;20084;47.912;19.044;2022-08-07T01:15:36;22.00;99.90
33761;DHT22;20084;47.912;19.044;2022-08-07T01:18:01;22.00;99.90
33761;DHT22;20084;47.912;19.044;2022-08-07T01:20:32;22.00;99.90
33761;DHT22;20084;47.912;19.044;2022-08-07T01:22:59;22.00;99.90
33761;DHT22;20084;47.912;19.044;2022-08-07T01:25:26;21.90;99.90
33761;DHT22;20084;47.912;19.044;2022-08-07T01:27:54;21.90;99.90
33761;DHT22;20084;47.912;19.044;2022-08-07T01:30:20;21.80;99.90
33761;DHT22;20084;47.912;19.044;2022-08-07T01:32:46;21.80;99.90
33761;DHT22;20084;47.912;19.044;2022-08-07T01:35:11;21.80;99.90
33761;DHT22;20084;47.912;19.044;2022-08-07T01:37:37;21.80;99.90
33761;DHT22;20084;47.912;19.044;2022-08-07T01:40:04;21.90;99.90
33761;DHT22;20084;47.912;19.044;2022-08-07T01:42:30;21.90;99.90
33761;DHT22;20084;47.912;19.044;2022-08-07T01:44:56;21.90;99.90
33761;DHT22;20084;47.912;19.044;2022-08-07T01:47:22;21.80;99.90
33761;DHT22;20084;47.912;19.044;2022-08-07T01:49:48;21.80;99.90
33761;DHT22;20084;47.912;19.044;2022-08-07T01:52:14;21.80;99.90
33761;DHT22;20084;47.912;19.044;2022-08-07T01:54:41;21.80;99.90
33761;DHT22;20084;47.912;19.044;2022-08-07T01:57:23;21.80;99.90
33761;DHT22;20084;47.912;19.044;2022-08-07T02:00:07;21.70;99.90
33761;DHT22;20084;47.912;19.044;2022-08-07T02:02:53;21.70;99.90
33761;DHT22;20084;47.912;19.044;2022-08-07T02:05:25;21.70;99.90
33761;DHT22;20084;47.912;19.044;2022-08-07T02:07:53;21.70;99.90
33761;DHT22;20084;47.912;19.044;2022-08-07T02:10:23;21.70;99.90
33761;DHT22;20084;47.912;19.044;2022-08-07T02:12:50;21.70;99.90
33761;DHT22;20084;47.912;19.044;2022-08-07T02:15:20;21.70;99.90
33761;DHT22;20084;47.912;19.044;2022-08-07T02:17:46;21.70;99.90
33761;DHT22;20084;47.912;19.044;2022-08-07T02:20:13;21.70;99.90
33761;DHT22;20084;47.912;19.044;2022-08-07T02:22:40;21.70;99.90
33761;DHT22;20084;47.912;19.044;2022-08-07T02:25:08;21.70;99.90
33761;DHT22;20084;47.912;19.044;2022-08-07T02:27:35;21.60;99.90
33761;DHT22;20084;47.912;19.044;2022-08-07T02:30:03;21.50;99.90
33761;DHT22;20084;47.912;19.044;2022-08-07T02:32:29;21.50;99.90
33761;DHT22;20084;47.912;19.044;2022-08-07T02:34:56;21.50;99.90
33761;DHT22;20084;47.912;19.044;2022-08-07T02:37:24;21.50;99.90
33761;DHT22;20084;47.912;19.044;2022-08-07T02:39:51;21.50;99.90
33761;DHT22;20084;47.912;19.044;2022-08-07T02:42:18;21.50;99.90
33761;DHT22;20084;47.912;19.044;2022-08-07T02:44:49;21.50;99.90
33761;DHT22;20084;47.912;19.044;2022-08-07T02:47:16;21.50;99.90
33761;DHT22;20084;47.912;19.044;2022-08-07T02:49:43;21.50;99.90
33761;DHT22;20084;47.912;19.044;2022-08-07T02:52:12;21.50;99.90
33761;DHT22;20084;47.912;19.044;2022-08-07T02:54:40;21.40;99.90
33761;DHT22;20084;47.912;19.044;2022-08-07T02:57:07;21.40;99.90
33761;DHT22;20084;47.912;19.044;2022-08-07T02:59:35;21.40;99.90
33761;DHT22;20084;47.912;19.044;2022-08-07T03:02:02;21.50;99.90
33761;DHT22;20084;47.912;19.044;2022-08-07T03:04:28;21.50;99.90
33761;DHT22;20084;47.912;19.044;2022-08-07T03:06:55;21.50;99.90
33761;DHT22;20084;47.912;19.044;2022-08-07T03:09:21;21.50;99.90
33761;DHT22;20084;47.912;19.044;2022-08-07T03:11:47;21.40;99.90
33761;DHT22;20084;47.912;19.044;2022-08-07T03:14:14;21.50;99.90
33761;DHT22;20084;47.912;19.044;2022-08-07T03:16:41;21.40;99.90
33761;DHT22;20084;47.912;19.044;2022-08-07T03:19:08;21.50;99.90
33761;DHT22;20084;47.912;19.044;2022-08-07T03:21:34;21.50;99.90
33761;DHT22;20084;47.912;19.044;2022-08-07T03:24:00;21.50;99.90
33761;DHT22;20084;47.912;19.044;2022-08-07T03:26:30;21.50;99.90
33761;DHT22;20084;47.912;19.044;2022-08-07T03:28:59;21.40;99.90
33761;DHT22;20084;47.912;19.044;2022-08-07T03:31:26;21.40;99.90
33761;DHT22;20084;47.912;19.044;2022-08-07T03:34:00;21.50;99.90
33761;DHT22;20084;47.912;19.044;2022-08-07T03:36:28;21.40;99.90
33761;DHT22;20084;47.912;19.044;2022-08-07T03:38:57;21.40;99.90
33761;DHT22;20084;47.912;19.044;2022-08-07T03:41:24;21.30;99.90
33761;DHT22;20084;47.912;19.044;2022-08-07T03:43:50;21.30;99.90
33761;DHT22;20084;47.912;19.044;2022-08-07T03:46:16;21.20;99.90
33761;DHT22;20084;47.912;19.044;2022-08-07T03:48:42;21.30;99.90
33761;DHT22;20084;47.912;19.044;2022-08-07T03:51:08;21.30;99.90
33761;DHT22;20084;47.912;19.044;2022-08-07T03:53:36;21.30;99.90
33761;DHT22;20084;47.912;19.044;2022-08-07T03:56:03;21.40;99.90
33761;DHT22;20084;47.912;19.044;2022-08-07T03:58:29;21.30;99.90
33761;DHT22;20084;47.912;19.044;2022-08-07T04:00:56;21.30;99.90
33761;DHT22;20084;47.912;19.044;2022-08-07T04:03:23;21.30;99.90
33761;DHT22;20084;47.912;19.044;2022-08-07T04:05:49;21.30;99.80
33761;DHT22;20084;47.912;19.044;2022-08-07T04:08:14;21.30;99.90
33761;DHT22;20084;47.912;19.044;2022-08-07T04:10:41;21.30;99.90
33761;DHT22;20084;47.912;19.044;2022-08-07T04:13:10;21.30;99.90
33761;DHT22;20084;47.912;19.044;2022-08-07T04:15:36;21.30;99.90
33761;DHT22;20084;47.912;19.044;2022-08-07T04:18:01;21.30;99.90
33761;DHT22;20084;47.912;19.044;2022-08-07T04:20:28;21.30;99.80
33761;DHT22;20084;47.912;19.044;2022-08-07T04:22:54;21.40;99.60
33761;DHT22;20084;47.912;19.044;2022-08-07T04:25:22;21.40;99.30
33761;DHT22;20084;47.912;19.044;2022-08-07T04:27:48;21.40;99.50
33761;DHT22;20084;47.912;19.044;2022-08-07T04:30:14;21.40;99.90
33761;DHT22;20084;47.912;19.044;2022-08-07T04:32:40;21.30;99.90
33761;DHT22;20084;47.912;19.044;2022-08-07T04:35:07;21.40;99.90
33761;DHT22;20084;47.912;19.044;2022-08-07T04:37:34;21.30;99.90
33761;DHT22;20084;47.912;19.044;2022-08-07T04:40:03;21.20;99.90
33761;DHT22;20084;47.912;19.044;2022-08-07T04:42:29;21.20;99.90
33761;DHT22;20084;47.912;19.044;2022-08-07T04:45:01;21.20;99.90
33761;DHT22;20084;47.912;19.044;2022-08-07T04:47:53;21.20;99.90
33761;DHT22;20084;47.912;19.044;2022-08-07T04:50:36;21.20;99.90
33761;DHT22;20084;47.912;19.044;2022-08-07T04:54:04;21.20;99.90
33761;DHT22;20084;47.912;19.044;2022-08-07T04:58:51;21.20;99.90
33761;DHT22;20084;47.912;19.044;2022-08-07T05:01:36;21.20;99.80
33761;DHT22;20084;47.912;19.044;2022-08-07T05:06:59;21.10;99.50
33761;DHT22;20084;47.912;19.044;2022-08-07T05:09:38;21.10;99.40
33761;DHT22;20084;47.912;19.044;2022-08-07T05:12:08;21.10;99.00
33761;DHT22;20084;47.912;19.044;2022-08-07T05:14:42;21.20;99.10
33761;DHT22;20084;47.912;19.044;2022-08-07T05:17:11;21.20;99.10
33761;DHT22;20084;47.912;19.044;2022-08-07T05:19:43;21.20;98.70
33761;DHT22;20084;47.912;19.044;2022-08-07T05:22:10;21.20;98.10
33761;DHT22;20084;47.912;19.044;2022-08-07T05:24:38;21.20;98.00
33761;DHT22;20084;47.912;19.044;2022-08-07T05:27:05;21.30;98.00
33761;DHT22;20084;47.912;19.044;2022-08-07T05:29:33;21.30;97.80
33761;DHT22;20084;47.912;19.044;2022-08-07T05:32:02;21.30;98.00
33761;DHT22;20084;47.912;19.044;2022-08-07T05:34:28;21.30;97.00
33761;DHT22;20084;47.912;19.044;2022-08-07T05:36:55;21.20;96.80
33761;DHT22;20084;47.912;19.044;2022-08-07T05:39:22;21.20;96.90
33761;DHT22;20084;47.912;19.044;2022-08-07T05:41:49;21.20;96.90
33761;DHT22;20084;47.912;19.044;2022-08-07T05:44:17;21.20;96.80
33761;DHT22;20084;47.912;19.044;2022-08-07T05:46:46;21.30;96.40
33761;DHT22;20084;47.912;19.044;2022-08-07T05:49:13;21.20;96.60
33761;DHT22;20084;47.912;19.044;2022-08-07T05:51:40;21.20;96.70
33761;DHT22;20084;47.912;19.044;2022-08-07T05:54:06;21.20;96.40
33761;DHT22;20084;47.912;19.044;2022-08-07T05:56:33;21.20;96.70
33761;DHT22;20084;47.912;19.044;2022-08-07T05:59:01;21.20;96.20
33761;DHT22;20084;47.912;19.044;2022-08-07T06:01:28;21.10;96.20
33761;DHT22;20084;47.912;19.044;2022-08-07T06:03:55;21.20;96.00
33761;DHT22;20084;47.912;19.044;2022-08-07T06:06:23;21.20;96.10
33761;DHT22;20084;47.912;19.044;2022-08-07T06:08:49;21.30;95.20
33761;DHT22;20084;47.912;19.044;2022-08-07T06:11:16;21.20;95.10
33761;DHT22;20084;47.912;19.044;2022-08-07T06:13:43;21.30;95.30
33761;DHT22;20084;47.912;19.044;2022-08-07T06:16:09;21.30;95.80
33761;DHT22;20084;47.912;19.044;2022-08-07T06:18:35;21.30;95.30
33761;DHT22;20084;47.912;19.044;2022-08-07T06:21:03;21.30;95.50
33761;DHT22;20084;47.912;19.044;2022-08-07T06:23:30;21.30;95.10
33761;DHT22;20084;47.912;19.044;2022-08-07T06:25:57;21.40;95.00
33761;DHT22;20084;47.912;19.044;2022-08-07T06:28:23;21.40;94.70
33761;DHT22;20084;47.912;19.044;2022-08-07T06:30:49;21.40;94.90
33761;DHT22;20084;47.912;19.044;2022-08-07T06:33:15;21.50;95.10
33761;DHT22;20084;47.912;19.044;2022-08-07T06:35:40;21.60;95.20
33761;DHT22;20084;47.912;19.044;2022-08-07T06:38:06;21.60;94.60
33761;DHT22;20084;47.912;19.044;2022-08-07T06:40:49;21.50;94.70
33761;DHT22;20084;47.912;19.044;2022-08-07T06:43:17;21.40;94.60
33761;DHT22;20084;47.912;19.044;2022-08-07T06:45:44;21.40;94.20
33761;DHT22;20084;47.912;19.044;2022-08-07T06:48:09;21.40;94.50
33761;DHT22;20084;47.912;19.044;2022-08-07T06:50:35;21.50;94.20
33761;DHT22;20084;47.912;19.044;2022-08-07T06:53:06;21.60;94.10
33761;DHT22;20084;47.912;19.044;2022-08-07T06:55:32;21.70;94.40
33761;DHT22;20084;47.912;19.044;2022-08-07T06:58:03;21.80;94.20
33761;DHT22;20084;47.912;19.044;2022-08-07T07:00:32;21.80;94.00
33761;DHT22;20084;47.912;19.044;2022-08-07T07:03:00;21.90;93.70
33761;DHT22;20084;47.912;19.044;2022-08-07T07:05:27;22.10;93.50
33761;DHT22;20084;47.912;19.044;2022-08-07T07:07:52;22.20;93.20
33761;DHT22;20084;47.912;19.044;2022-08-07T07:10:29;22.20;93.40
33761;DHT22;20084;47.912;19.044;2022-08-07T07:13:02;22.30;92.90
33761;DHT22;20084;47.912;19.044;2022-08-07T07:15:35;22.30;92.70
33761;DHT22;20084;47.912;19.044;2022-08-07T07:18:27;22.30;92.40
33761;DHT22;20084;47.912;19.044;2022-08-07T07:21:16;22.30;92.10
33761;DHT22;20084;47.912;19.044;2022-08-07T07:23:43;22.30;92.50
33761;DHT22;20084;47.912;19.044;2022-08-07T07:26:13;22.30;92.40
33761;DHT22;20084;47.912;19.044;2022-08-07T07:28:44;22.40;92.30
33761;DHT22;20084;47.912;19.044;2022-08-07T07:31:34;22.60;92.20
33761;DHT22;20084;47.912;19.044;2022-08-07T07:34:04;22.60;91.50
33761;DHT22;20084;47.912;19.044;2022-08-07T07:36:32;22.60;93.10
33761;DHT22;20084;47.912;19.044;2022-08-07T07:39:02;22.60;92.40
33761;DHT22;20084;47.912;19.044;2022-08-07T07:41:28;22.80;91.60
33761;DHT22;20084;47.912;19.044;2022-08-07T07:43:56;22.70;91.50
33761;DHT22;20084;47.912;19.044;2022-08-07T07:46:23;22.70;91.70
33761;DHT22;20084;47.912;19.044;2022-08-07T07:48:51;22.80;91.30
33761;DHT22;20084;47.912;19.044;2022-08-07T07:51:20;22.80;91.20
33761;DHT22;20084;47.912;19.044;2022-08-07T07:53:48;22.90;91.50
33761;DHT22;20084;47.912;19.044;2022-08-07T07:56:15;23.00;92.00
33761;DHT22;20084;47.912;19.044;2022-08-07T07:58:42;23.10;91.20
33761;DHT22;20084;47.912;19.044;2022-08-07T08:01:09;23.30;91.00
33761;DHT22;20084;47.912;19.044;2022-08-07T08:03:37;23.30;90.70
33761;DHT22;20084;47.912;19.044;2022-08-07T08:06:06;23.40;89.00
33761;DHT22;20084;47.912;19.044;2022-08-07T08:08:33;23.40;89.60
33761;DHT22;20084;47.912;19.044;2022-08-07T08:11:00;23.40;90.20
33761;DHT22;20084;47.912;19.044;2022-08-07T08:13:28;23.50;91.20
33761;DHT22;20084;47.912;19.044;2022-08-07T08:15:55;23.70;90.90
33761;DHT22;20084;47.912;19.044;2022-08-07T08:18:22;23.80;89.60
33761;DHT22;20084;47.912;19.044;2022-08-07T08:20:48;23.90;88.90
33761;DHT22;20084;47.912;19.044;2022-08-07T08:23:16;23.90;87.80
33761;DHT22;20084;47.912;19.044;2022-08-07T08:26:04;23.90;86.80
33761;DHT22;20084;47.912;19.044;2022-08-07T08:28:50;24.10;89.70
33761;DHT22;20084;47.912;19.044;2022-08-07T08:31:24;24.20;87.60
33761;DHT22;20084;47.912;19.044;2022-08-07T08:33:52;24.40;86.80
33761;DHT22;20084;47.912;19.044;2022-08-07T08:36:20;24.50;87.50
33761;DHT22;20084;47.912;19.044;2022-08-07T08:38:47;24.80;87.80
33761;DHT22;20084;47.912;19.044;2022-08-07T08:41:17;24.90;85.30
33761;DHT22;20084;47.912;19.044;2022-08-07T08:49:39;25.30;82.10
33761;DHT22;20084;47.912;19.044;2022-08-07T08:52:27;25.40;83.30
33761;DHT22;20084;47.912;19.044;2022-08-07T08:54:58;25.40;80.00
33761;DHT22;20084;47.912;19.044;2022-08-07T08:57:37;25.40;81.00
33761;DHT22;20084;47.912;19.044;2022-08-07T09:00:07;25.60;81.90
33761;DHT22;20084;47.912;19.044;2022-08-07T09:13:37;25.40;80.80
33761;DHT22;20084;47.912;19.044;2022-08-07T09:24:18;25.90;78.50
33761;DHT22;20084;47.912;19.044;2022-08-07T09:27:04;26.00;77.60
33761;DHT22;20084;47.912;19.044;2022-08-07T09:40:27;26.40;78.10
33761;DHT22;20084;47.912;19.044;2022-08-07T09:43:09;26.60;76.70
33761;DHT22;20084;47.912;19.044;2022-08-07T09:48:53;26.70;77.20
33761;DHT22;20084;47.912;19.044;2022-08-07T09:54:17;26.70;76.10
33761;DHT22;20084;47.912;19.044;2022-08-07T10:00:05;26.90;75.10
33761;DHT22;20084;47.912;19.044;2022-08-07T10:06:42;27.10;74.50
33761;DHT22;20084;47.912;19.044;2022-08-07T10:09:11;27.20;73.60
33761;DHT22;20084;47.912;19.044;2022-08-07T10:14:41;27.40;74.20
33761;DHT22;20084;47.912;19.044;2022-08-07T10:20:18;27.40;72.50
33761;DHT22;20084;47.912;19.044;2022-08-07T10:23:16;27.30;73.30
33761;DHT22;20084;47.912;19.044;2022-08-07T10:28:57;27.20;75.80
33761;DHT22;20084;47.912;19.044;2022-08-07T10:32:04;27.30;74.70
33761;DHT22;20084;47.912;19.044;2022-08-07T10:34:54;27.30;72.50
33761;DHT22;20084;47.912;19.044;2022-08-07T10:40:30;27.00;74.10
33761;DHT22;20084;47.912;19.044;2022-08-07T10:43:11;27.00;75.30
33761;DHT22;20084;47.912;19.044;2022-08-07T10:45:46;27.10;75.80
33761;DHT22;20084;47.912;19.044;2022-08-07T10:48:20;27.20;77.00
33761;DHT22;20084;47.912;19.044;2022-08-07T10:51:12;27.40;74.60
33761;DHT22;20084;47.912;19.044;2022-08-07T11:02:28;27.90;73.80
33761;DHT22;20084;47.912;19.044;2022-08-07T11:10:46;27.90;73.00
33761;DHT22;20084;47.912;19.044;2022-08-07T11:15:47;27.80;72.90
33761;DHT22;20084;47.912;19.044;2022-08-07T11:18:24;27.80;73.00
33761;DHT22;20084;47.912;19.044;2022-08-07T11:21:06;27.70;74.40
33761;DHT22;20084;47.912;19.044;2022-08-07T11:24:10;27.80;76.40
33761;DHT22;20084;47.912;19.044;2022-08-07T11:29:21;28.00;76.20
33761;DHT22;20084;47.912;19.044;2022-08-07T11:35:02;28.30;75.10
33761;DHT22;20084;47.912;19.044;2022-08-07T11:46:04;28.20;72.80
33761;DHT22;20084;47.912;19.044;2022-08-07T11:54:20;28.00;75.80
33761;DHT22;20084;47.912;19.044;2022-08-07T11:57:21;28.00;73.50
33761;DHT22;20084;47.912;19.044;2022-08-07T12:00:15;27.90;73.20
33761;DHT22;20084;47.912;19.044;2022-08-07T12:03:10;28.00;76.70
33761;DHT22;20084;47.912;19.044;2022-08-07T12:08:39;28.20;72.60
33761;DHT22;20084;47.912;19.044;2022-08-07T12:11:13;28.20;72.50
33761;DHT22;20084;47.912;19.044;2022-08-07T12:16:19;28.30;72.00
33761;DHT22;20084;47.912;19.044;2022-08-07T12:18:47;28.30;71.60
33761;DHT22;20084;47.912;19.044;2022-08-07T12:21:45;28.30;73.70
33761;DHT22;20084;47.912;19.044;2022-08-07T12:24:24;28.20;71.40
33761;DHT22;20084;47.912;19.044;2022-08-07T12:27:01;28.10;72.00
33761;DHT22;20084;47.912;19.044;2022-08-07T12:29:58;28.10;74.60
33761;DHT22;20084;47.912;19.044;2022-08-07T12:32:47;28.00;73.40
33761;DHT22;20084;47.912;19.044;2022-08-07T12:35:14;27.90;73.70
33761;DHT22;20084;47.912;19.044;2022-08-07T12:37:42;28.00;76.80
33761;DHT22;20084;47.912;19.044;2022-08-07T12:40:12;27.90;78.70
33761;DHT22;20084;47.912;19.044;2022-08-07T12:42:41;27.90;74.70
33761;DHT22;20084;47.912;19.044;2022-08-07T12:45:11;27.90;75.10
33761;DHT22;20084;47.912;19.044;2022-08-07T12:47:59;27.80;73.50
33761;DHT22;20084;47.912;19.044;2022-08-07T12:50:36;27.80;73.80
33761;DHT22;20084;47.912;19.044;2022-08-07T12:55:39;27.90;75.90
33761;DHT22;20084;47.912;19.044;2022-08-07T12:58:07;27.90;77.90
33761;DHT22;20084;47.912;19.044;2022-08-07T13:11:56;28.10;75.10
33761;DHT22;20084;47.912;19.044;2022-08-07T13:14:35;28.10;73.90
33761;DHT22;20084;47.912;19.044;2022-08-07T13:17:12;28.20;74.50
33761;DHT22;20084;47.912;19.044;2022-08-07T13:23:02;28.50;72.20
33761;DHT22;20084;47.912;19.044;2022-08-07T13:25:47;28.60;72.80
33761;DHT22;20084;47.912;19.044;2022-08-07T13:28:40;28.60;71.90
33761;DHT22;20084;47.912;19.044;2022-08-07T13:31:20;28.60;73.90
33761;DHT22;20084;47.912;19.044;2022-08-07T13:34:22;28.50;70.00
33761;DHT22;20084;47.912;19.044;2022-08-07T13:36:55;28.40;70.50
33761;DHT22;20084;47.912;19.044;2022-08-07T13:39:32;28.50;71.00
33761;DHT22;20084;47.912;19.044;2022-08-07T13:42:00;28.50;73.30
33761;DHT22;20084;47.912;19.044;2022-08-07T13:44:31;28.60;71.10
33761;DHT22;20084;47.912;19.044;2022-08-07T13:46:58;28.50;71.90
33761;DHT22;20084;47.912;19.044;2022-08-07T13:49:31;28.60;73.20
33761;DHT22;20084;47.912;19.044;2022-08-07T13:52:03;28.70;73.60
33761;DHT22;20084;47.912;19.044;2022-08-07T13:54:30;28.80;72.10
33761;DHT22;20084;47.912;19.044;2022-08-07T13:56:58;28.90;73.80
33761;DHT22;20084;47.912;19.044;2022-08-07T13:59:27;29.00;71.80
33761;DHT22;20084;47.912;19.044;2022-08-07T14:02:10;29.10;69.40
33761;DHT22;20084;47.912;19.044;2022-08-07T14:04:47;28.90;68.30
33761;DHT22;20084;47.912;19.044;2022-08-07T14:07:15;29.00;69.30
33761;DHT22;20084;47.912;19.044;2022-08-07T14:09:41;29.00;68.70
33761;DHT22;20084;47.912;19.044;2022-08-07T14:12:17;29.10;67.40
33761;DHT22;20084;47.912;19.044;2022-08-07T14:14:53;29.10;65.70
33761;DHT22;20084;47.912;19.044;2022-08-07T14:17:22;29.10;68.90
33761;DHT22;20084;47.912;19.044;2022-08-07T14:20:09;29.20;69.10
33761;DHT22;20084;47.912;19.044;2022-08-07T14:22:36;29.20;67.80
33761;DHT22;20084;47.912;19.044;2022-08-07T14:25:10;29.10;67.00
33761;DHT22;20084;47.912;19.044;2022-08-07T14:27:42;29.20;67.70
33761;DHT22;20084;47.912;19.044;2022-08-07T14:30:11;29.30;66.90
33761;DHT22;20084;47.912;19.044;2022-08-07T14:35:24;29.30;66.00
33761;DHT22;20084;47.912;19.044;2022-08-07T14:37:52;29.40;67.40
33761;DHT22;20084;47.912;19.044;2022-08-07T14:40:22;29.40;67.70
33761;DHT22;20084;47.912;19.044;2022-08-07T14:43:03;29.40;66.20
33761;DHT22;20084;47.912;19.044;2022-08-07T14:45:33;29.50;66.90
33761;DHT22;20084;47.912;19.044;2022-08-07T14:48:06;29.50;67.00
33761;DHT22;20084;47.912;19.044;2022-08-07T14:50:32;29.40;67.00
33761;DHT22;20084;47.912;19.044;2022-08-07T14:52:59;29.40;66.80
33761;DHT22;20084;47.912;19.044;2022-08-07T14:55:31;29.30;65.30
33761;DHT22;20084;47.912;19.044;2022-08-07T14:57:58;29.30;65.00
33761;DHT22;20084;47.912;19.044;2022-08-07T15:00:29;29.30;64.50
33761;DHT22;20084;47.912;19.044;2022-08-07T15:02:57;29.30;64.50
33761;DHT22;20084;47.912;19.044;2022-08-07T15:05:24;29.20;63.50
33761;DHT22;20084;47.912;19.044;2022-08-07T15:07:51;29.20;63.00
33761;DHT22;20084;47.912;19.044;2022-08-07T15:10:22;29.20;65.00
33761;DHT22;20084;47.912;19.044;2022-08-07T15:12:51;29.20;63.70
33761;DHT22;20084;47.912;19.044;2022-08-07T15:15:44;29.20;65.30
33761;DHT22;20084;47.912;19.044;2022-08-07T15:18:12;29.20;65.70
33761;DHT22;20084;47.912;19.044;2022-08-07T15:20:39;29.20;64.80
33761;DHT22;20084;47.912;19.044;2022-08-07T15:23:09;29.10;63.40
33761;DHT22;20084;47.912;19.044;2022-08-07T15:25:38;29.00;64.50
33761;DHT22;20084;47.912;19.044;2022-08-07T15:28:06;29.00;64.50
33761;DHT22;20084;47.912;19.044;2022-08-07T15:30:34;29.00;64.80
33761;DHT22;20084;47.912;19.044;2022-08-07T15:33:03;29.00;65.00
33761;DHT22;20084;47.912;19.044;2022-08-07T15:35:31;29.10;64.90
33761;DHT22;20084;47.912;19.044;2022-08-07T15:37:59;29.00;64.00
33761;DHT22;20084;47.912;19.044;2022-08-07T15:40:30;29.00;64.80
33761;DHT22;20084;47.912;19.044;2022-08-07T15:43:15;28.90;65.80
33761;DHT22;20084;47.912;19.044;2022-08-07T15:45:42;28.90;65.30
33761;DHT22;20084;47.912;19.044;2022-08-07T15:50:42;29.00;65.70
33761;DHT22;20084;47.912;19.044;2022-08-07T15:56:03;28.90;67.60
33761;DHT22;20084;47.912;19.044;2022-08-07T16:01:24;28.80;67.90
33761;DHT22;20084;47.912;19.044;2022-08-07T16:03:55;28.80;68.70
33761;DHT22;20084;47.912;19.044;2022-08-07T16:06:32;28.70;67.30
33761;DHT22;20084;47.912;19.044;2022-08-07T16:09:07;28.80;67.10
33761;DHT22;20084;47.912;19.044;2022-08-07T16:14:55;28.70;66.40
33761;DHT22;20084;47.912;19.044;2022-08-07T16:17:42;28.70;66.00
33761;DHT22;20084;47.912;19.044;2022-08-07T16:34:43;28.30;66.10
33761;DHT22;20084;47.912;19.044;2022-08-07T16:50:49;28.00;68.00
33761;DHT22;20084;47.912;19.044;2022-08-07T17:01:59;28.00;70.20
33761;DHT22;20084;47.912;19.044;2022-08-07T17:07:53;27.90;68.90
33761;DHT22;20084;47.912;19.044;2022-08-07T17:10:28;27.90;70.60
33761;DHT22;20084;47.912;19.044;2022-08-07T17:16:20;27.90;67.80
33761;DHT22;20084;47.912;19.044;2022-08-07T17:21:30;27.80;69.60
33761;DHT22;20084;47.912;19.044;2022-08-07T17:24:28;27.80;69.30
33761;DHT22;20084;47.912;19.044;2022-08-07T17:27:12;27.80;70.10
33761;DHT22;20084;47.912;19.044;2022-08-07T17:35:09;27.80;71.20
33761;DHT22;20084;47.912;19.044;2022-08-07T17:38:05;27.80;71.70
33761;DHT22;20084;47.912;19.044;2022-08-07T17:43:33;27.70;71.90
33761;DHT22;20084;47.912;19.044;2022-08-07T17:46:20;27.70;73.40
33761;DHT22;20084;47.912;19.044;2022-08-07T17:49:18;27.50;73.80
33761;DHT22;20084;47.912;19.044;2022-08-07T17:54:27;27.40;75.10
33761;DHT22;20084;47.912;19.044;2022-08-07T17:57:00;27.30;75.00
33761;DHT22;20084;47.912;19.044;2022-08-07T17:59:31;27.30;78.10
33761;DHT22;20084;47.912;19.044;2022-08-07T18:10:07;26.80;87.10
33761;DHT22;20084;47.912;19.044;2022-08-07T18:15:53;26.60;87.50
33761;DHT22;20084;47.912;19.044;2022-08-07T18:18:21;26.50;88.20
33761;DHT22;20084;47.912;19.044;2022-08-07T18:21:02;26.50;88.10
33761;DHT22;20084;47.912;19.044;2022-08-07T18:23:44;26.50;88.40
33761;DHT22;20084;47.912;19.044;2022-08-07T18:26:19;26.40;87.90
33761;DHT22;20084;47.912;19.044;2022-08-07T18:31:42;26.20;89.10
33761;DHT22;20084;47.912;19.044;2022-08-07T18:34:21;26.00;89.10
33761;DHT22;20084;47.912;19.044;2022-08-07T18:42:43;25.80;90.30
33761;DHT22;20084;47.912;19.044;2022-08-07T18:45:19;25.80;90.70
33761;DHT22;20084;47.912;19.044;2022-08-07T18:48:04;25.70;90.60
33761;DHT22;20084;47.912;19.044;2022-08-07T18:53:27;25.60;91.20
33761;DHT22;20084;47.912;19.044;2022-08-07T18:56:36;25.50;91.40
33761;DHT22;20084;47.912;19.044;2022-08-07T19:01:48;25.30;91.40
33761;DHT22;20084;47.912;19.044;2022-08-07T19:10:11;25.00;92.10
33761;DHT22;20084;47.912;19.044;2022-08-07T19:23:05;24.50;93.80
33761;DHT22;20084;47.912;19.044;2022-08-07T19:25:35;24.50;93.80
33761;DHT22;20084;47.912;19.044;2022-08-07T19:28:03;24.50;92.80
33761;DHT22;20084;47.912;19.044;2022-08-07T19:30:34;24.50;92.80
33761;DHT22;20084;47.912;19.044;2022-08-07T19:33:07;24.50;93.00
33761;DHT22;20084;47.912;19.044;2022-08-07T19:35:34;24.40;92.90
33761;DHT22;20084;47.912;19.044;2022-08-07T19:38:08;24.50;93.20
33761;DHT22;20084;47.912;19.044;2022-08-07T19:40:40;24.40;93.40